ESFY weather

Public forecast

Using degrees Celsius for public forecast. Weather courtesy of forecast.io.

Closest aviation weather report (METAR) to Byholma Air Base

Closest report is Halmstad Airport, 26.3 nm (48.7 km) WSW. Retrieved 2020/08/10 07:20 UTC (17 minutes ago):

ESMT 100720Z 12005KT CAVOK 23/16 Q1021

Closest aviation forecast (TAF) to Byholma Air Base

Forecast is more than 12 hours old.

Closest forecast is Halmstad Airport, 26.3 nm (48.7 km) WSW. Retrieved 2017/04/24 06:33 UTC (3 years ago):

TAF ESMT 240513Z 2406/2506 22018KT 9999 BKN018 TEMPO 2406/2413 22018G30KT 4000 RADZ BKN008 TEMPO 2413/2415 24020G30KT 4000 SHRA BKN014 SCT020CB